Time;durP1;ratioP1;P1;durP2;ratioP2;P2;SDS_P1;SDS_P2;PMS_P1;PMS_P2;Temp;Humidity;BMP_temperature;BMP_pressure;BME280_temperature;BME280_humidity;BME280_pressure;Samples;Min_cycle;Max_cycle;Signal;HPM_P1;HPM_P2
2023/10/28 00:01:12;;;;;;;0.60;0.60;;;;;;;9.26;84.89;96965.78;5005128;28;20546;-81
2023/10/28 00:03:38;;;;;;;0.60;0.60;;;;;;;9.32;83.64;96964.94;5023403;28;20446;-80
2023/10/28 00:06:04;;;;;;;0.60;0.60;;;;;;;9.27;84.38;96966.69;4984827;28;20046;-80
2023/10/28 00:08:30;;;;;;;0.70;0.70;;;;;;;9.09;86.34;96970.09;5006719;28;20029;-80
2023/10/28 00:10:55;;;;;;;0.55;0.55;;;;;;;9.20;84.58;96971.09;5008105;28;21856;-80
2023/10/28 00:13:21;;;;;;;0.60;0.60;;;;;;;9.15;85.45;96963.06;5003905;28;20943;-80
2023/10/28 00:15:46;;;;;;;0.60;0.60;;;;;;;9.17;84.19;96977.25;5006031;28;20037;-79
2023/10/28 00:18:12;;;;;;;0.60;0.60;;;;;;;9.16;85.06;96970.19;5025618;28;20559;-80
2023/10/28 00:20:41;;;;;;;0.50;0.50;;;;;;;9.21;85.20;96967.53;5021481;28;20044;-80
2023/10/28 00:23:07;;;;;;;0.60;0.60;;;;;;;9.16;84.62;96959.53;5006602;28;20029;-80
2023/10/28 00:25:35;;;;;;;0.60;0.60;;;;;;;9.21;84.30;96964.88;5012238;28;20041;-79
2023/10/28 00:28:01;;;;;;;0.60;0.60;;;;;;;9.23;85.01;96960.44;4992970;28;20041;-79
2023/10/28 00:30:26;;;;;;;0.52;0.52;;;;;;;9.36;83.04;96969.41;4986735;28;20037;-81
2023/10/28 00:32:53;;;;;;;0.60;0.60;;;;;;;9.39;82.80;96964.06;5008437;28;20048;-81
2023/10/28 00:35:21;;;;;;;0.70;0.70;;;;;;;9.38;83.25;96967.63;5002670;28;20063;-81
2023/10/28 00:37:47;;;;;;;0.60;0.60;;;;;;;9.39;82.59;96961.41;5006755;28;20589;-80
2023/10/28 00:40:13;;;;;;;0.60;0.60;;;;;;;9.30;83.52;96962.28;5005346;28;20030;-79
2023/10/28 00:42:39;;;;;;;0.60;0.60;;;;;;;9.45;81.99;96972.09;5005476;28;20072;-80
2023/10/28 00:45:11;;;;;;;0.60;0.60;;;;;;;9.39;82.53;96983.63;5004432;28;20080;-80
2023/10/28 00:47:45;;;;;;;0.60;0.60;;;;;;;9.33;83.18;96977.34;5001045;28;20116;-81
2023/10/28 00:50:14;;;;;;;0.50;0.50;;;;;;;9.33;83.20;96972.91;5020709;28;20029;-81
2023/10/28 00:52:43;;;;;;;0.60;0.60;;;;;;;9.33;82.80;96970.25;5020526;28;20042;-81
2023/10/28 00:55:10;;;;;;;0.60;0.60;;;;;;;9.36;82.46;96969.41;5022992;28;20555;-81
2023/10/28 00:57:38;;;;;;;0.60;0.60;;;;;;;9.26;82.86;96981.75;5021714;28;20044;-80
2023/10/28 01:00:06;;;;;;;0.50;0.50;;;;;;;9.33;82.73;96969.38;5025609;28;20053;-82
2023/10/28 01:03:09;;;;;;;0.55;0.55;;;;;;;9.42;81.81;96977.41;4950617;28;20062;-77
2023/10/28 01:05:35;;;;;;;0.50;0.50;;;;;;;9.43;82.18;96989.81;4968742;28;20078;-79
2023/10/28 01:08:00;;;;;;;0.60;0.60;;;;;;;9.37;82.37;96980.03;4952125;28;20067;-76
2023/10/28 01:10:28;;;;;;;0.60;0.60;;;;;;;9.45;81.38;96986.31;4955861;28;20034;-77
2023/10/28 01:12:54;;;;;;;0.60;0.60;;;;;;;9.63;80.69;96987.25;4955814;28;20504;-76
2023/10/28 01:15:22;;;;;;;0.50;0.50;;;;;;;9.56;80.97;96990.78;4966144;28;20046;-78
2023/10/28 01:17:48;;;;;;;0.60;0.60;;;;;;;9.54;80.64;96982.81;4970337;28;20039;-78
2023/10/28 01:20:13;;;;;;;0.60;0.60;;;;;;;9.64;80.97;96983.75;4950834;28;20145;-77
2023/10/28 01:22:39;;;;;;;0.50;0.50;;;;;;;9.62;80.75;96990.81;4950887;28;20490;-79
2023/10/28 01:25:05;;;;;;;0.60;0.60;;;;;;;9.63;80.71;96987.25;4968449;28;20047;-78
2023/10/28 01:27:30;;;;;;;0.60;0.60;;;;;;;9.43;82.24;96984.50;4952042;28;20038;-77
2023/10/28 01:29:55;;;;;;;0.60;0.60;;;;;;;9.36;82.23;96985.38;4970902;28;20035;-78
2023/10/28 01:32:21;;;;;;;0.60;0.60;;;;;;;9.38;81.70;96981.81;4967061;28;20383;-79
2023/10/28 01:34:50;;;;;;;0.60;0.60;;;;;;;9.30;81.57;96994.22;4969101;28;20038;-78
2023/10/28 01:37:16;;;;;;;0.60;0.60;;;;;;;9.37;81.75;96990.69;4966673;28;20520;-78
2023/10/28 01:39:48;;;;;;;0.60;0.60;;;;;;;9.44;81.04;96995.19;4951025;28;20043;-79
2023/10/28 01:42:14;;;;;;;0.50;0.50;;;;;;;9.53;80.21;96983.66;4970247;28;20042;-77
2023/10/28 01:44:40;;;;;;;0.60;0.60;;;;;;;9.50;80.59;97000.53;4972176;28;20035;-79
2023/10/28 01:47:08;;;;;;;0.60;0.60;;;;;;;9.56;80.33;97001.44;4989542;28;20078;-79
2023/10/28 01:49:36;;;;;;;0.60;0.60;;;;;;;9.62;80.01;96999.69;4972775;28;20678;-79
2023/10/28 01:52:03;;;;;;;0.50;0.50;;;;;;;9.66;79.79;97006.81;4988002;28;20047;-79
2023/10/28 01:54:30;;;;;;;0.53;0.53;;;;;;;9.75;79.06;97008.63;4972184;28;20039;-78
2023/10/28 01:56:57;;;;;;;0.65;0.65;;;;;;;9.70;79.70;97005.06;4968312;28;20043;-79
2023/10/28 01:59:25;;;;;;;0.60;0.60;;;;;;;9.67;79.42;97013.03;4969825;28;20041;-79
2023/10/28 02:01:51;;;;;;;0.60;0.60;;;;;;;9.74;79.13;97007.75;4973118;28;20034;-76
2023/10/28 02:04:16;;;;;;;0.50;0.50;;;;;;;9.79;78.83;97021.09;4989007;28;20058;-78
2023/10/28 02:06:43;;;;;;;0.60;0.60;;;;;;;9.76;78.63;97011.28;4971714;28;20045;-77
2023/10/28 02:09:08;;;;;;;0.60;0.60;;;;;;;9.73;79.15;97021.97;4972628;28;20062;-78
2023/10/28 02:11:34;;;;;;;0.50;0.50;;;;;;;9.77;78.59;97026.41;4970733;28;20034;-78
2023/10/28 02:14:00;;;;;;;0.50;0.50;;;;;;;9.73;78.61;97021.97;4971530;28;20047;-77
2023/10/28 02:16:26;;;;;;;0.60;0.60;;;;;;;9.71;79.54;97031.69;4968356;28;20045;-78
2023/10/28 02:18:51;;;;;;;0.60;0.60;;;;;;;9.73;78.53;97024.63;4965839;28;20099;-78
2023/10/28 02:21:20;;;;;;;0.60;0.60;;;;;;;9.71;78.32;97036.13;4970647;28;20038;-78
2023/10/28 02:23:45;;;;;;;0.60;0.60;;;;;;;9.64;79.02;97029.91;4970393;28;20057;-80
2023/10/28 02:26:11;;;;;;;0.60;0.60;;;;;;;9.67;78.92;97034.31;4969405;28;20489;-77
2023/10/28 02:28:36;;;;;;;0.55;0.55;;;;;;;9.77;78.47;97044.13;4952767;28;20041;-79
2023/10/28 02:31:02;;;;;;;0.60;0.60;;;;;;;9.92;77.74;97046.03;4968678;28;20054;-78
2023/10/28 02:33:27;;;;;;;0.60;0.60;;;;;;;9.88;78.02;97036.22;4971387;28;20038;-79
2023/10/28 02:35:53;;;;;;;0.50;0.50;;;;;;;9.74;78.26;97034.38;4968647;28;20469;-79
2023/10/28 02:38:19;;;;;;;0.60;0.60;;;;;;;9.71;78.07;97031.69;4971308;28;20540;-77
2023/10/28 02:40:46;;;;;;;0.60;0.60;;;;;;;9.58;79.06;97031.63;4968717;28;20066;-77
2023/10/28 02:43:11;;;;;;;0.60;0.60;;;;;;;9.65;78.18;97038.78;4985379;28;20431;-77
2023/10/28 02:45:38;;;;;;;0.50;0.50;;;;;;;9.60;78.19;97043.19;4965272;28;20492;-78
2023/10/28 02:48:03;;;;;;;0.60;0.60;;;;;;;9.55;79.09;97036.94;4981157;28;20053;-77
2023/10/28 02:50:29;;;;;;;0.50;0.50;;;;;;;9.47;79.22;97043.09;4950975;28;20047;-77
2023/10/28 02:52:55;;;;;;;0.60;0.60;;;;;;;9.33;79.73;97044.78;4966462;28;20109;-78
2023/10/28 02:55:21;;;;;;;0.50;0.50;;;;;;;9.14;80.74;97046.41;4969453;28;20061;-78
2023/10/28 02:57:46;;;;;;;0.60;0.60;;;;;;;8.96;81.81;97043.63;4967485;28;20038;-77
2023/10/28 03:00:12;;;;;;;0.60;0.60;;;;;;;9.04;80.52;97038.34;4965765;28;20053;-79
2023/10/28 03:02:38;;;;;;;0.60;0.60;;;;;;;8.92;81.83;97037.38;4966820;28;20119;-77
2023/10/28 03:05:05;;;;;;;0.50;0.50;;;;;;;8.89;81.87;97037.34;4966927;28;20051;-77
2023/10/28 03:07:30;;;;;;;0.70;0.70;;;;;;;8.62;83.07;97039.75;4965735;28;20112;-78
2023/10/28 03:09:59;;;;;;;0.60;0.60;;;;;;;8.66;82.98;97041.56;4967975;28;20680;-78
2023/10/28 03:12:24;;;;;;;0.60;0.60;;;;;;;8.66;82.97;97052.22;4969631;28;20170;-78
2023/10/28 03:14:51;;;;;;;0.70;0.70;;;;;;;8.58;83.18;97054.81;4965373;28;20042;-78
2023/10/28 03:17:17;;;;;;;0.60;0.60;;;;;;;8.63;83.19;97044.22;4965370;28;20405;-78
2023/10/28 03:19:43;;;;;;;0.60;0.60;;;;;;;8.76;82.59;97047.88;4965963;28;20050;-77
2023/10/28 03:22:08;;;;;;;0.60;0.60;;;;;;;8.77;82.67;97044.31;4968312;28;20061;-78
2023/10/28 03:24:33;;;;;;;0.60;0.60;;;;;;;8.78;82.39;97052.34;4965622;28;20042;-77
2023/10/28 03:26:59;;;;;;;0.60;0.60;;;;;;;8.97;81.58;97043.63;4965761;28;20058;-78
2023/10/28 03:29:24;;;;;;;0.60;0.60;;;;;;;8.84;81.97;97049.72;4968526;28;20491;-77
2023/10/28 03:31:50;;;;;;;0.60;0.60;;;;;;;8.95;81.58;97053.34;4969661;28;20096;-78
2023/10/28 03:34:15;;;;;;;0.60;0.60;;;;;;;8.76;82.73;97039.88;4970485;28;20038;-79
2023/10/28 03:36:41;;;;;;;0.50;0.50;;;;;;;8.85;83.10;97048.84;4965256;28;20046;-78
2023/10/28 03:39:07;;;;;;;0.60;0.60;;;;;;;8.76;82.96;97046.09;4965127;28;20037;-78
2023/10/28 03:41:33;;;;;;;0.60;0.60;;;;;;;8.65;83.53;97045.13;4965467;28;20038;-78
2023/10/28 03:44:02;;;;;;;0.60;0.60;;;;;;;8.63;84.43;97052.19;4968832;28;20043;-78
2023/10/28 03:46:27;;;;;;;0.52;0.52;;;;;;;8.62;82.74;97050.38;4968705;28;20037;-78
2023/10/28 03:48:53;;;;;;;0.60;0.60;;;;;;;8.74;82.58;97051.41;4969347;28;20046;-77
2023/10/28 03:51:18;;;;;;;0.50;0.50;;;;;;;8.83;82.14;97060.34;4968560;28;20031;-78
2023/10/28 03:53:44;;;;;;;0.60;0.60;;;;;;;8.80;83.61;97061.19;4966811;28;20030;-78
2023/10/28 03:56:10;;;;;;;0.60;0.60;;;;;;;8.76;83.05;97061.16;4964957;28;20041;-78
2023/10/28 03:58:35;;;;;;;0.55;0.55;;;;;;;8.77;84.22;97062.94;4966694;28;20035;-79
2023/10/28 04:01:01;;;;;;;0.52;0.52;;;;;;;8.91;81.67;97050.66;4967354;28;20066;-77
2023/10/28 04:03:26;;;;;;;0.60;0.60;;;;;;;9.19;80.06;97059.75;4969045;28;20916;-78
2023/10/28 04:05:54;;;;;;;0.60;0.60;;;;;;;9.23;80.41;97064.22;4965965;28;20049;-78
2023/10/28 04:08:19;;;;;;;0.50;0.50;;;;;;;9.41;78.54;97064.34;4968401;28;20118;-78
2023/10/28 04:10:46;;;;;;;0.50;0.50;;;;;;;9.52;77.97;97062.66;4967058;28;20038;-78
2023/10/28 04:13:12;;;;;;;0.60;0.60;;;;;;;9.44;79.56;97067.06;4965614;28;20137;-77
2023/10/28 04:15:39;;;;;;;0.60;0.60;;;;;;;9.41;79.01;97063.47;4967622;28;20049;-77
2023/10/28 04:18:05;;;;;;;0.60;0.60;;;;;;;9.51;78.40;97052.88;4966129;28;20694;-76
2023/10/28 04:20:31;;;;;;;0.60;0.60;;;;;;;9.68;76.73;97065.44;4967721;28;20038;-78
2023/10/28 04:22:57;;;;;;;0.52;0.52;;;;;;;9.75;76.80;97057.47;4984045;28;20123;-78
2023/10/28 04:25:22;;;;;;;0.55;0.55;;;;;;;9.67;77.40;97058.28;4967512;28;20045;-79
2023/10/28 04:27:49;;;;;;;0.50;0.50;;;;;;;9.67;77.17;97063.63;4962185;28;20042;-78
2023/10/28 04:30:15;;;;;;;0.60;0.60;;;;;;;9.83;76.57;97060.19;4969278;28;20120;-78
2023/10/28 04:32:40;;;;;;;0.55;0.55;;;;;;;9.77;76.39;97055.72;4969090;28;20186;-78
2023/10/28 04:35:06;;;;;;;0.50;0.50;;;;;;;9.72;76.74;97057.44;4972588;28;20500;-77
2023/10/28 04:37:32;;;;;;;0.60;0.60;;;;;;;9.81;76.18;97061.03;4973278;28;20153;-78
2023/10/28 04:39:57;;;;;;;0.50;0.50;;;;;;;9.82;76.62;97058.41;4975790;28;20047;-78
2023/10/28 04:42:23;;;;;;;0.52;0.52;;;;;;;9.78;76.68;97051.28;4973882;28;20936;-78
2023/10/28 04:44:48;;;;;;;0.60;0.60;;;;;;;9.79;76.78;97047.72;4972510;28;20248;-77
2023/10/28 04:47:14;;;;;;;0.50;0.50;;;;;;;9.62;78.43;97063.59;4970410;28;20031;-77
2023/10/28 04:49:41;;;;;;;0.50;0.50;;;;;;;9.61;77.40;97068.91;4969985;28;20054;-77
2023/10/28 04:52:08;;;;;;;0.50;0.50;;;;;;;9.87;76.30;97055.72;4986984;28;20487;-78
2023/10/28 04:54:38;;;;;;;;;;;;;;;9.82;75.92;97060.16;4973403;28;20043;-78
2023/10/28 04:57:04;;;;;;;0.50;0.50;;;;;;;10.07;74.81;97058.50;4969880;28;20543;-77
2023/10/28 04:59:30;;;;;;;0.57;0.57;;;;;;;10.10;74.58;97055.84;4970334;28;20091;-77
2023/10/28 05:01:56;;;;;;;0.60;0.60;;;;;;;10.15;73.75;97054.09;4970531;28;20054;-78
2023/10/28 05:04:24;;;;;;;0.55;0.55;;;;;;;10.01;74.83;97052.28;4969267;28;20045;-78
2023/10/28 05:06:51;;;;;;;0.55;0.55;;;;;;;10.01;74.85;97048.69;4966251;28;20051;-78
2023/10/28 05:09:16;;;;;;;0.60;0.60;;;;;;;9.97;75.08;97053.13;4962742;28;20047;-78
2023/10/28 05:11:42;;;;;;;0.50;0.50;;;;;;;10.21;73.01;97055.00;4969728;28;20034;-78
2023/10/28 05:14:10;;;;;;;0.50;0.50;;;;;;;10.10;73.88;97050.50;4982693;28;20555;-77
2023/10/28 05:16:36;;;;;;;0.50;0.50;;;;;;;10.06;74.18;97051.38;4968200;28;20059;-78
2023/10/28 05:19:01;;;;;;;0.50;0.50;;;;;;;10.15;73.72;97054.97;4971141;28;20053;-78
2023/10/28 05:21:27;;;;;;;0.50;0.50;;;;;;;10.13;73.49;97050.53;4969364;28;20038;-78
2023/10/28 05:23:52;;;;;;;0.50;0.50;;;;;;;10.01;73.94;97057.59;4966191;28;20057;-78
2023/10/28 05:26:18;;;;;;;0.50;0.50;;;;;;;10.09;73.72;97062.06;4972273;28;20580;-77
2023/10/28 05:28:46;;;;;;;0.50;0.50;;;;;;;10.09;73.08;97051.41;4969995;28;20041;-79
2023/10/28 05:31:12;;;;;;;0.50;0.50;;;;;;;9.96;73.71;97056.66;4986150;28;20664;-79
2023/10/28 05:33:37;;;;;;;0.50;0.50;;;;;;;9.85;74.40;97054.84;4969247;28;20057;-78
2023/10/28 05:36:05;;;;;;;0.50;0.50;;;;;;;9.82;73.73;97047.75;4973981;28;20069;-79
2023/10/28 05:38:31;;;;;;;0.50;0.50;;;;;;;9.83;73.32;97044.19;4973955;28;20405;-79
2023/10/28 05:40:57;;;;;;;0.50;0.50;;;;;;;9.92;73.24;97046.91;4968031;28;20139;-80
2023/10/28 05:43:22;;;;;;;0.50;0.50;;;;;;;9.83;73.66;97057.50;4971569;28;20053;-80
2023/10/28 05:45:48;;;;;;;0.50;0.50;;;;;;;9.76;73.58;97061.00;4973281;28;20050;-79
2023/10/28 05:48:14;;;;;;;0.50;0.50;;;;;;;9.71;73.87;97062.75;4975677;28;20030;-80
2023/10/28 05:50:39;;;;;;;0.60;0.60;;;;;;;9.85;73.03;97061.06;4974087;28;20042;-80
2023/10/28 05:53:05;;;;;;;0.50;0.50;;;;;;;9.86;73.32;97060.16;4971075;28;20042;-79
2023/10/28 05:55:31;;;;;;;0.55;0.55;;;;;;;9.82;73.17;97062.81;4971084;28;20031;-79
2023/10/28 05:57:57;;;;;;;0.60;0.60;;;;;;;9.72;73.88;97075.19;4969250;28;20041;-79
2023/10/28 06:00:23;;;;;;;0.55;0.55;;;;;;;9.78;73.91;97075.25;4968509;28;20543;-80
2023/10/28 06:02:48;;;;;;;0.60;0.60;;;;;;;9.93;72.47;97075.31;4969277;28;20572;-79
2023/10/28 06:05:14;;;;;;;0.57;0.57;;;;;;;10.06;72.98;97086.00;4972533;28;20346;-79
2023/10/28 06:07:40;;;;;;;0.50;0.50;;;;;;;10.02;73.04;97077.13;4972754;28;20089;-80
2023/10/28 06:10:07;;;;;;;0.50;0.50;;;;;;;10.15;71.31;97084.28;4970455;28;20078;-80
2023/10/28 06:12:33;;;;;;;;;;;;;;;10.11;71.75;97092.25;4974566;28;20112;-79
2023/10/28 06:14:58;;;;;;;0.70;0.70;;;;;;;10.03;72.43;97092.25;4971233;28;19928;-80
2023/10/28 06:17:24;;;;;;;0.50;0.50;;;;;;;10.16;71.88;97087.88;4971864;28;20814;-79
2023/10/28 06:19:50;;;;;;;0.57;0.57;;;;;;;10.11;72.03;97100.25;4974364;28;20042;-79
2023/10/28 06:22:15;;;;;;;0.50;0.50;;;;;;;10.15;72.01;97104.72;4973835;28;20408;-79
2023/10/28 06:24:41;;;;;;;0.50;0.50;;;;;;;10.17;72.30;97102.97;4971340;28;20034;-80
2023/10/28 06:27:08;;;;;;;0.52;0.52;;;;;;;10.29;71.59;97100.38;4974234;28;20027;-79
2023/10/28 06:29:34;;;;;;;0.60;0.60;;;;;;;10.32;71.25;97105.72;4968649;28;20031;-79
2023/10/28 06:31:59;;;;;;;0.57;0.57;;;;;;;10.45;70.90;97091.56;4973604;28;20117;-79
2023/10/28 06:34:28;;;;;;;0.50;0.50;;;;;;;10.55;69.52;97100.47;4967747;28;20038;-79
2023/10/28 06:36:54;;;;;;;0.60;0.60;;;;;;;10.52;69.93;97106.69;4973637;28;20169;-81
2023/10/28 06:39:20;;;;;;;0.50;0.50;;;;;;;10.52;70.05;97108.47;4976130;28;20058;-81
2023/10/28 06:41:46;;;;;;;0.50;0.50;;;;;;;10.46;69.99;97103.09;4972137;28;20588;-80
2023/10/28 06:44:11;;;;;;;0.50;0.50;;;;;;;10.40;71.40;97122.66;4970398;28;20043;-81
2023/10/28 06:46:37;;;;;;;0.50;0.50;;;;;;;10.36;71.00;97119.97;4972394;28;20041;-81
2023/10/28 06:49:02;;;;;;;0.50;0.50;;;;;;;10.35;71.51;97123.47;4969916;28;20039;-80
2023/10/28 06:51:30;;;;;;;0.50;0.50;;;;;;;10.48;70.77;97138.66;4972585;28;20309;-80
2023/10/28 06:53:55;;;;;;;0.50;0.50;;;;;;;10.74;69.57;97131.66;4974247;28;20549;-80
2023/10/28 06:56:21;;;;;;;0.50;0.50;;;;;;;10.65;70.02;97123.63;4969259;28;20042;-80
2023/10/28 06:58:46;;;;;;;0.50;0.50;;;;;;;10.69;69.52;97130.75;4975439;28;20034;-81
2023/10/28 07:01:12;;;;;;;0.60;0.60;;;;;;;10.77;69.48;97128.97;4975405;28;20871;-81
2023/10/28 07:03:37;;;;;;;0.50;0.50;;;;;;;10.88;68.32;97131.69;4977983;28;20286;-82
2023/10/28 07:06:09;;;;;;;0.50;0.50;;;;;;;10.88;68.61;97144.13;4988229;28;20039;-81
2023/10/28 07:08:36;;;;;;;0.60;0.60;;;;;;;10.76;69.27;97147.66;4978071;28;20066;-80
2023/10/28 07:11:02;;;;;;;0.50;0.50;;;;;;;10.84;68.80;97145.91;4978593;28;20552;-81
2023/10/28 07:13:33;;;;;;;0.50;0.50;;;;;;;10.87;69.01;97151.22;4976597;28;20133;-81
2023/10/28 07:16:05;;;;;;;0.47;0.47;;;;;;;10.90;68.38;97158.34;4970654;28;20089;-81
2023/10/28 07:18:32;;;;;;;0.50;0.50;;;;;;;10.86;68.81;97164.56;4968487;28;20074;-80
2023/10/28 07:20:58;;;;;;;0.50;0.50;;;;;;;10.89;68.73;97172.59;4970136;28;20066;-79
2023/10/28 07:23:27;;;;;;;0.50;0.50;;;;;;;11.07;67.30;97166.38;4967483;28;20042;-81
2023/10/28 07:25:53;;;;;;;0.50;0.50;;;;;;;11.04;67.41;97178.84;4970297;28;20047;-81
2023/10/28 07:28:20;;;;;;;0.50;0.50;;;;;;;10.99;68.22;97179.72;4974794;28;20038;-80
2023/10/28 07:30:50;;;;;;;0.50;0.50;;;;;;;10.99;68.92;97167.28;4989335;28;20456;-80
2023/10/28 07:33:20;;;;;;;0.50;0.50;;;;;;;11.13;67.17;97180.66;4988374;28;20046;-81
2023/10/28 07:35:50;;;;;;;0.50;0.50;;;;;;;11.28;66.56;97180.66;4974294;28;20057;-80
2023/10/28 07:38:16;;;;;;;0.50;0.50;;;;;;;11.39;66.13;97178.00;4975310;28;20045;-80
2023/10/28 07:40:42;;;;;;;0.50;0.50;;;;;;;11.49;66.22;97174.44;4974464;28;20144;-80
2023/10/28 07:43:10;;;;;;;0.50;0.50;;;;;;;11.59;65.61;97180.69;4971892;28;20141;-81
2023/10/28 07:45:36;;;;;;;0.50;0.50;;;;;;;11.63;65.51;97174.44;4970588;28;20044;-79
2023/10/28 07:48:01;;;;;;;0.50;0.50;;;;;;;11.61;65.13;97172.69;4973086;28;20039;-80
2023/10/28 07:50:27;;;;;;;0.50;0.50;;;;;;;11.94;65.07;97172.69;4973612;28;20416;-80
2023/10/28 07:52:52;;;;;;;0.40;0.40;;;;;;;12.50;63.53;97174.34;4971582;28;20489;-79
2023/10/28 07:55:18;;;;;;;0.57;0.57;;;;;;;13.15;60.67;97174.91;4970647;28;20043;-80
2023/10/28 07:57:46;;;;;;;0.40;0.40;;;;;;;14.43;57.68;97180.13;4973174;28;20698;-81
2023/10/28 08:00:13;;;;;;;0.40;0.40;;;;;;;14.02;58.11;97178.75;4970939;28;20103;-81
2023/10/28 08:02:43;;;;;;;0.30;0.30;;;;;;;13.66;59.35;97178.19;4971815;28;20034;-78
2023/10/28 08:05:10;;;;;;;0.30;0.30;;;;;;;13.72;58.48;97190.63;4973645;28;20113;-80
2023/10/28 08:07:38;;;;;;;0.30;0.30;;;;;;;13.27;59.69;97195.41;4976501;28;20057;-79
2023/10/28 08:10:05;;;;;;;0.30;0.30;;;;;;;12.77;61.68;97191.19;4975738;28;20120;-79
2023/10/28 08:12:31;;;;;;;0.40;0.40;;;;;;;12.71;61.45;97202.81;4979116;28;20097;-79
2023/10/28 08:14:59;;;;;;;0.40;0.40;;;;;;;14.91;56.02;97204.66;4975950;28;20062;-79
2023/10/28 08:17:25;;;;;;;0.40;0.40;;;;;;;14.95;55.64;97207.28;4972316;28;20043;-79
2023/10/28 08:19:50;;;;;;;0.30;0.30;;;;;;;14.26;56.08;97207.13;4976519;28;20046;-77
2023/10/28 08:22:16;;;;;;;0.40;0.40;;;;;;;15.47;53.43;97206.53;4977522;28;20775;-79
2023/10/28 08:24:41;;;;;;;0.30;0.30;;;;;;;15.40;53.92;97212.94;4973406;28;20039;-79
2023/10/28 08:27:08;;;;;;;0.30;0.30;;;;;;;14.66;55.24;97214.78;4979822;28;20322;-79
2023/10/28 08:29:34;;;;;;;0.30;0.30;;;;;;;16.00;52.00;97203.94;4972580;28;20034;-79
2023/10/28 08:32:00;;;;;;;0.30;0.30;;;;;;;16.67;50.18;97211.72;4979585;28;20047;-79
2023/10/28 08:34:26;;;;;;;0.30;0.30;;;;;;;16.67;50.05;97197.34;4991836;28;20038;-79
2023/10/28 08:36:55;;;;;;;0.30;0.30;;;;;;;16.02;51.72;97194.06;4975630;28;20518;-79
2023/10/28 08:39:20;;;;;;;0.20;0.20;;;;;;;14.52;55.55;97207.78;4978127;28;20477;-80
2023/10/28 08:41:49;;;;;;;0.20;0.20;;;;;;;14.75;55.02;97217.34;4988493;28;20058;-79
2023/10/28 08:44:23;;;;;;;0.30;0.30;;;;;;;14.25;56.43;97211.59;4978342;28;20034;-81
2023/10/28 08:46:49;;;;;;;0.30;0.30;;;;;;;14.29;56.32;97223.19;4977505;28;20515;-81
2023/10/28 08:49:17;;;;;;;0.30;0.30;;;;;;;14.84;55.30;97214.56;4984035;28;20050;-81
2023/10/28 08:51:48;;;;;;;0.30;0.30;;;;;;;15.53;52.23;97209.16;4976237;28;20056;-81
2023/10/28 08:54:15;;;;;;;0.30;0.30;;;;;;;15.60;53.11;97207.25;4976113;28;20046;-81
2023/10/28 08:56:43;;;;;;;0.32;0.32;;;;;;;16.19;51.19;97196.44;4974902;28;20129;-79
2023/10/28 08:59:09;;;;;;;0.30;0.30;;;;;;;16.53;49.26;97194.94;4965616;28;20445;-80
2023/10/28 09:01:36;;;;;;;0.20;0.20;;;;;;;16.76;49.68;97190.91;4972030;28;20042;-80
2023/10/28 09:04:04;;;;;;;0.35;0.35;;;;;;;16.70;48.55;97204.47;4974206;28;20081;-80
2023/10/28 09:06:30;;;;;;;0.30;0.30;;;;;;;17.81;46.33;97188.59;4972524;28;20463;-80
2023/10/28 09:08:57;;;;;;;0.20;0.20;;;;;;;17.61;47.38;97188.16;4964530;28;20051;-81
2023/10/28 09:11:23;;;;;;;0.20;0.20;;;;;;;16.89;49.07;97211.31;4968036;28;20501;-79
2023/10/28 09:13:49;;;;;;;0.30;0.30;;;;;;;17.03;48.87;97208.34;4968320;28;20087;-79
2023/10/28 09:16:15;;;;;;;0.30;0.30;;;;;;;16.86;48.85;97195.19;4967270;28;20042;-80
2023/10/28 09:18:42;;;;;;;0.30;0.30;;;;;;;17.01;47.71;97202.06;4976755;28;20035;-80
2023/10/28 09:21:09;;;;;;;0.30;0.30;;;;;;;16.71;49.33;97199.06;4966661;28;20408;-80
2023/10/28 09:23:36;;;;;;;0.30;0.30;;;;;;;17.14;48.07;97199.09;4964997;28;20034;-81
2023/10/28 09:26:02;;;;;;;0.30;0.30;;;;;;;17.56;47.61;97193.66;4968519;28;20047;-79
2023/10/28 09:28:28;;;;;;;0.28;0.28;;;;;;;17.04;49.00;97197.53;4967376;28;21042;-80
2023/10/28 09:30:56;;;;;;;0.20;0.20;;;;;;;17.10;48.79;97197.41;4967009;28;20038;-78
2023/10/28 09:33:23;;;;;;;0.20;0.20;;;;;;;16.40;50.42;97209.53;4962707;28;20138;-80
2023/10/28 09:35:53;;;;;;;0.20;0.20;;;;;;;16.59;50.65;97204.69;4960700;28;20141;-79
2023/10/28 09:38:19;;;;;;;0.25;0.25;;;;;;;16.91;48.90;97201.38;4969679;28;20070;-80
2023/10/28 09:40:45;;;;;;;0.30;0.30;;;;;;;17.03;48.42;97187.66;4961050;28;21397;-79
2023/10/28 09:43:12;;;;;;;0.28;0.28;;;;;;;17.44;47.27;97197.56;4966483;28;20404;-80
2023/10/28 09:45:38;;;;;;;0.20;0.20;;;;;;;17.75;47.80;97198.66;4959977;28;20034;-81
2023/10/28 09:48:12;;;;;;;0.20;0.20;;;;;;;16.32;49.38;97198.91;4978152;28;20031;-80
2023/10/28 09:50:44;;;;;;;0.30;0.30;;;;;;;17.03;49.14;97194.88;4965414;28;20041;-79
2023/10/28 09:53:15;;;;;;;0.20;0.20;;;;;;;16.78;48.73;97207.97;4958898;28;20101;-81
2023/10/28 09:55:44;;;;;;;0.30;0.30;;;;;;;16.78;48.64;97208.84;4960672;28;20039;-80
2023/10/28 09:58:21;;;;;;;0.30;0.30;;;;;;;17.30;47.36;97196.97;4961261;28;20027;-78
2023/10/28 10:00:50;;;;;;;0.30;0.30;;;;;;;17.52;47.17;97201.88;4960706;28;20034;-79
2023/10/28 10:03:25;;;;;;;0.30;0.30;;;;;;;17.30;47.18;97198.78;4967491;28;20158;-79
2023/10/28 10:05:53;;;;;;;0.30;0.30;;;;;;;17.36;47.36;97206.72;4961413;28;20126;-78
2023/10/28 10:08:23;;;;;;;0.30;0.30;;;;;;;17.08;47.13;97207.31;4954884;28;20424;-81
2023/10/28 10:10:51;;;;;;;0.20;0.20;;;;;;;17.57;46.93;97205.34;4961845;28;20499;-80
2023/10/28 10:13:21;;;;;;;0.20;0.20;;;;;;;17.27;47.75;97204.22;4960523;28;20058;-80
2023/10/28 10:16:00;;;;;;;0.20;0.20;;;;;;;16.67;49.35;97227.88;4965211;28;20123;-80
2023/10/28 10:18:37;;;;;;;0.30;0.30;;;;;;;15.84;50.43;97196.16;4963160;28;20035;-78
2023/10/28 10:21:09;;;;;;;0.30;0.30;;;;;;;15.86;50.63;97212.28;4939920;28;20150;-78
2023/10/28 10:23:45;;;;;;;0.30;0.30;;;;;;;15.99;51.12;97207.56;4965913;28;20062;-78
2023/10/28 10:26:31;;;;;;;0.30;0.30;;;;;;;16.14;50.75;97210.91;4959831;28;20039;-80
2023/10/28 10:29:02;;;;;;;0.40;0.40;;;;;;;16.68;49.02;97216.19;4961516;28;20054;-80
2023/10/28 10:31:30;;;;;;;0.30;0.30;;;;;;;16.10;50.74;97222.63;4983528;28;20039;-81
2023/10/28 10:34:01;;;;;;;0.30;0.30;;;;;;;16.19;50.03;97213.47;4959859;28;20049;-78
2023/10/28 10:36:28;;;;;;;0.30;0.30;;;;;;;16.42;49.10;97215.78;4962975;28;20545;-79
2023/10/28 10:38:54;;;;;;;0.40;0.40;;;;;;;17.43;46.56;97209.22;4966376;28;20449;-81
2023/10/28 10:41:29;;;;;;;0.30;0.30;;;;;;;17.34;46.85;97220.25;4964491;28;20050;-79
2023/10/28 10:43:55;;;;;;;0.30;0.30;;;;;;;18.42;44.49;97219.44;4966469;28;20059;-80
2023/10/28 10:46:21;;;;;;;0.20;0.20;;;;;;;17.02;46.64;97218.22;4965170;28;20066;-80
2023/10/28 10:48:49;;;;;;;0.30;0.30;;;;;;;16.79;47.28;97209.72;4957888;28;20093;-79
2023/10/28 10:51:15;;;;;;;0.28;0.28;;;;;;;16.51;48.58;97207.53;4973381;28;20476;-80
2023/10/28 10:53:42;;;;;;;0.25;0.25;;;;;;;15.87;49.75;97217.63;4958951;28;20134;-79
2023/10/28 10:56:20;;;;;;;0.30;0.30;;;;;;;16.12;49.57;97217.22;4967980;28;20270;-81
2023/10/28 10:58:46;;;;;;;0.40;0.40;;;;;;;16.25;48.88;97224.16;4971381;28;20027;-81
2023/10/28 11:01:12;;;;;;;0.40;0.40;;;;;;;16.80;47.76;97217.75;4958530;28;20089;-82
2023/10/28 11:03:39;;;;;;;0.30;0.30;;;;;;;17.09;46.78;97225.25;4966054;28;20824;-80
2023/10/28 11:06:05;;;;;;;;;;;;;;;17.13;46.44;97218.00;4960743;28;20543;-81
2023/10/28 11:08:31;;;;;;;0.30;0.30;;;;;;;16.47;48.96;97213.00;4964099;28;19957;-81
2023/10/28 11:10:57;;;;;;;0.30;0.30;;;;;;;17.04;47.52;97224.47;4962803;28;20035;-80
2023/10/28 11:13:22;;;;;;;0.30;0.30;;;;;;;18.22;45.89;97213.69;4960896;28;20401;-81
2023/10/28 11:15:49;;;;;;;0.30;0.30;;;;;;;16.60;47.00;97212.75;4964400;28;20381;-80
2023/10/28 11:18:15;;;;;;;0.20;0.20;;;;;;;15.77;48.80;97226.75;4966480;28;20054;-81
2023/10/28 11:20:42;;;;;;;0.30;0.30;;;;;;;16.02;49.23;97207.53;4964956;28;20148;-82
2023/10/28 11:23:08;;;;;;;;;;;;;;;15.91;49.39;97207.72;4969013;28;20599;-81
2023/10/28 11:25:34;;;;;;;0.30;0.30;;;;;;;15.80;49.69;97225.81;4959629;28;19964;-81
2023/10/28 11:28:10;;;;;;;0.25;0.25;;;;;;;15.71;50.11;97204.44;4968872;28;20409;-81
2023/10/28 11:30:36;;;;;;;0.30;0.30;;;;;;;15.43;50.31;97209.28;4960734;28;20121;-80
2023/10/28 11:33:07;;;;;;;0.30;0.30;;;;;;;15.31;50.86;97208.56;4963408;28;20135;-81
2023/10/28 11:35:36;;;;;;;0.22;0.22;;;;;;;15.28;50.72;97203.25;4968174;28;20039;-80
2023/10/28 11:38:02;;;;;;;0.30;0.30;;;;;;;15.28;51.55;97210.41;4976783;28;20101;-81